sensor_id;sensor_type;location;lat;lon;timestamp;P1;durP1;ratioP1;P2;durP2;ratioP2
23222;SDS011;11780;13.904;100.620;2023-05-01T00:00:28;49.53;;;37.53;;
23222;SDS011;11780;13.904;100.620;2023-05-01T00:02:59;48.85;;;39.22;;
23222;SDS011;11780;13.904;100.620;2023-05-01T00:05:29;48.20;;;36.73;;
23222;SDS011;11780;13.904;100.620;2023-05-01T00:08:00;40.45;;;33.35;;
23222;SDS011;11780;13.904;100.620;2023-05-01T00:10:30;42.53;;;31.15;;
23222;SDS011;11780;13.904;100.620;2023-05-01T00:13:03;48.10;;;36.42;;
23222;SDS011;11780;13.904;100.620;2023-05-01T00:15:34;39.93;;;30.17;;
23222;SDS011;11780;13.904;100.620;2023-05-01T00:18:05;46.95;;;36.45;;
23222;SDS011;11780;13.904;100.620;2023-05-01T00:20:36;49.90;;;36.47;;
23222;SDS011;11780;13.904;100.620;2023-05-01T00:23:06;43.00;;;30.70;;
23222;SDS011;11780;13.904;100.620;2023-05-01T00:25:37;53.17;;;37.05;;
23222;SDS011;11780;13.904;100.620;2023-05-01T00:28:07;38.93;;;28.63;;
23222;SDS011;11780;13.904;100.620;2023-05-01T00:30:38;37.65;;;27.38;;
23222;SDS011;11780;13.904;100.620;2023-05-01T00:33:09;37.70;;;28.73;;
23222;SDS011;11780;13.904;100.620;2023-05-01T00:35:42;35.78;;;28.58;;
23222;SDS011;11780;13.904;100.620;2023-05-01T00:38:13;33.15;;;26.17;;
23222;SDS011;11780;13.904;100.620;2023-05-01T00:40:44;37.72;;;29.67;;
23222;SDS011;11780;13.904;100.620;2023-05-01T00:43:15;39.05;;;25.63;;
23222;SDS011;11780;13.904;100.620;2023-05-01T00:45:45;33.88;;;25.33;;
23222;SDS011;11780;13.904;100.620;2023-05-01T00:48:16;34.22;;;24.45;;
23222;SDS011;11780;13.904;100.620;2023-05-01T00:50:46;29.67;;;22.98;;
23222;SDS011;11780;13.904;100.620;2023-05-01T00:53:17;35.55;;;25.23;;
23222;SDS011;11780;13.904;100.620;2023-05-01T00:55:48;31.77;;;25.08;;
23222;SDS011;11780;13.904;100.620;2023-05-01T00:58:20;30.65;;;24.45;;
23222;SDS011;11780;13.904;100.620;2023-05-01T01:00:50;30.07;;;25.73;;
23222;SDS011;11780;13.904;100.620;2023-05-01T01:03:21;39.95;;;24.92;;
23222;SDS011;11780;13.904;100.620;2023-05-01T01:08:59;29.80;;;22.73;;
23222;SDS011;11780;13.904;100.620;2023-05-01T01:11:46;29.98;;;23.27;;
23222;SDS011;11780;13.904;100.620;2023-05-01T01:14:31;31.08;;;23.33;;
23222;SDS011;11780;13.904;100.620;2023-05-01T01:31:51;31.77;;;24.50;;
23222;SDS011;11780;13.904;100.620;2023-05-01T01:34:39;30.88;;;24.60;;
23222;SDS011;11780;13.904;100.620;2023-05-01T01:37:19;29.63;;;24.10;;
23222;SDS011;11780;13.904;100.620;2023-05-01T01:39:58;31.85;;;23.20;;
23222;SDS011;11780;13.904;100.620;2023-05-01T01:42:36;31.05;;;25.08;;
23222;SDS011;11780;13.904;100.620;2023-05-01T01:45:18;28.00;;;24.13;;
23222;SDS011;11780;13.904;100.620;2023-05-01T01:47:54;33.23;;;25.13;;
23222;SDS011;11780;13.904;100.620;2023-05-01T01:50:26;27.17;;;22.13;;
23222;SDS011;11780;13.904;100.620;2023-05-01T01:55:29;27.70;;;24.05;;
23222;SDS011;11780;13.904;100.620;2023-05-01T01:58:02;30.77;;;23.52;;
23222;SDS011;11780;13.904;100.620;2023-05-01T02:00:34;27.23;;;23.65;;
23222;SDS011;11780;13.904;100.620;2023-05-01T02:03:05;28.48;;;23.88;;
23222;SDS011;11780;13.904;100.620;2023-05-01T02:05:38;30.25;;;23.75;;
23222;SDS011;11780;13.904;100.620;2023-05-01T02:08:10;28.83;;;23.20;;
23222;SDS011;11780;13.904;100.620;2023-05-01T02:10:43;25.58;;;22.80;;
23222;SDS011;11780;13.904;100.620;2023-05-01T02:13:16;27.05;;;23.10;;
23222;SDS011;11780;13.904;100.620;2023-05-01T02:15:48;30.35;;;23.38;;
23222;SDS011;11780;13.904;100.620;2023-05-01T02:18:19;26.95;;;22.90;;
23222;SDS011;11780;13.904;100.620;2023-05-01T02:20:50;31.17;;;24.83;;
23222;SDS011;11780;13.904;100.620;2023-05-01T02:25:53;27.17;;;23.92;;
23222;SDS011;11780;13.904;100.620;2023-05-01T03:40:47;31.67;;;21.08;;
23222;SDS011;11780;13.904;100.620;2023-05-01T03:43:36;24.45;;;20.45;;
23222;SDS011;11780;13.904;100.620;2023-05-01T03:46:16;25.38;;;21.15;;
23222;SDS011;11780;13.904;100.620;2023-05-01T03:48:47;24.48;;;21.58;;
23222;SDS011;11780;13.904;100.620;2023-05-01T03:51:18;26.48;;;21.58;;
23222;SDS011;11780;13.904;100.620;2023-05-01T03:53:52;25.42;;;20.58;;
23222;SDS011;11780;13.904;100.620;2023-05-01T03:56:29;28.60;;;21.65;;
23222;SDS011;11780;13.904;100.620;2023-05-01T03:59:05;24.63;;;20.50;;
23222;SDS011;11780;13.904;100.620;2023-05-01T04:01:35;25.60;;;21.17;;
23222;SDS011;11780;13.904;100.620;2023-05-01T04:04:07;24.65;;;20.25;;
23222;SDS011;11780;13.904;100.620;2023-05-01T04:06:42;25.10;;;20.23;;
23222;SDS011;11780;13.904;100.620;2023-05-01T04:09:13;27.13;;;20.70;;
23222;SDS011;11780;13.904;100.620;2023-05-01T04:11:43;23.52;;;21.05;;
23222;SDS011;11780;13.904;100.620;2023-05-01T04:14:15;26.65;;;22.02;;
23222;SDS011;11780;13.904;100.620;2023-05-01T04:16:45;25.13;;;21.30;;
23222;SDS011;11780;13.904;100.620;2023-05-01T04:19:17;23.08;;;20.08;;
23222;SDS011;11780;13.904;100.620;2023-05-01T04:21:51;26.17;;;21.60;;
23222;SDS011;11780;13.904;100.620;2023-05-01T04:24:24;23.50;;;20.13;;
23222;SDS011;11780;13.904;100.620;2023-05-01T04:26:54;23.15;;;20.73;;
23222;SDS011;11780;13.904;100.620;2023-05-01T04:29:25;25.80;;;21.40;;
23222;SDS011;11780;13.904;100.620;2023-05-01T04:31:55;25.63;;;21.40;;
23222;SDS011;11780;13.904;100.620;2023-05-01T04:36:57;27.43;;;20.67;;
23222;SDS011;11780;13.904;100.620;2023-05-01T04:39:28;24.47;;;21.73;;
23222;SDS011;11780;13.904;100.620;2023-05-01T04:41:58;25.60;;;22.33;;
23222;SDS011;11780;13.904;100.620;2023-05-01T04:44:30;23.60;;;20.75;;
23222;SDS011;11780;13.904;100.620;2023-05-01T04:47:03;25.65;;;21.52;;
23222;SDS011;11780;13.904;100.620;2023-05-01T04:49:34;26.63;;;21.30;;
23222;SDS011;11780;13.904;100.620;2023-05-01T04:52:05;24.57;;;20.43;;
23222;SDS011;11780;13.904;100.620;2023-05-01T04:54:48;25.88;;;22.00;;
23222;SDS011;11780;13.904;100.620;2023-05-01T04:57:22;24.67;;;21.25;;
23222;SDS011;11780;13.904;100.620;2023-05-01T04:59:52;26.30;;;22.47;;
23222;SDS011;11780;13.904;100.620;2023-05-01T05:02:23;23.13;;;19.95;;
23222;SDS011;11780;13.904;100.620;2023-05-01T05:04:55;24.85;;;22.15;;
23222;SDS011;11780;13.904;100.620;2023-05-01T05:07:26;24.92;;;22.17;;
23222;SDS011;11780;13.904;100.620;2023-05-01T05:10:14;22.95;;;20.33;;
23222;SDS011;11780;13.904;100.620;2023-05-01T05:12:55;23.95;;;21.17;;
23222;SDS011;11780;13.904;100.620;2023-05-01T05:15:25;26.35;;;22.23;;
23222;SDS011;11780;13.904;100.620;2023-05-01T05:17:56;22.97;;;20.33;;
23222;SDS011;11780;13.904;100.620;2023-05-01T05:22:57;26.85;;;20.85;;
23222;SDS011;11780;13.904;100.620;2023-05-01T05:25:27;25.93;;;22.47;;
23222;SDS011;11780;13.904;100.620;2023-05-01T05:27:58;26.92;;;20.92;;
23222;SDS011;11780;13.904;100.620;2023-05-01T05:30:29;27.08;;;21.10;;
23222;SDS011;11780;13.904;100.620;2023-05-01T05:33:01;27.83;;;22.75;;
23222;SDS011;11780;13.904;100.620;2023-05-01T05:35:34;25.55;;;22.15;;
23222;SDS011;11780;13.904;100.620;2023-05-01T05:38:04;27.77;;;23.80;;
23222;SDS011;11780;13.904;100.620;2023-05-01T05:40:37;26.40;;;22.42;;
23222;SDS011;11780;13.904;100.620;2023-05-01T05:43:08;25.27;;;22.58;;
23222;SDS011;11780;13.904;100.620;2023-05-01T05:48:09;25.92;;;22.20;;
23222;SDS011;11780;13.904;100.620;2023-05-01T05:50:40;25.37;;;22.50;;
23222;SDS011;11780;13.904;100.620;2023-05-01T05:53:10;25.13;;;22.52;;
23222;SDS011;11780;13.904;100.620;2023-05-01T05:55:42;25.08;;;21.63;;
23222;SDS011;11780;13.904;100.620;2023-05-01T05:58:14;26.42;;;23.38;;
23222;SDS011;11780;13.904;100.620;2023-05-01T06:00:51;25.10;;;22.52;;
23222;SDS011;11780;13.904;100.620;2023-05-01T06:03:24;25.75;;;22.92;;
23222;SDS011;11780;13.904;100.620;2023-05-01T06:05:59;26.95;;;21.42;;
23222;SDS011;11780;13.904;100.620;2023-05-01T06:08:30;24.15;;;21.42;;
23222;SDS011;11780;13.904;100.620;2023-05-01T06:11:02;25.90;;;23.08;;
23222;SDS011;11780;13.904;100.620;2023-05-01T06:13:37;30.77;;;23.63;;
23222;SDS011;11780;13.904;100.620;2023-05-01T06:16:07;25.27;;;21.43;;
23222;SDS011;11780;13.904;100.620;2023-05-01T06:18:38;26.77;;;22.07;;
23222;SDS011;11780;13.904;100.620;2023-05-01T06:21:11;24.33;;;21.73;;
23222;SDS011;11780;13.904;100.620;2023-05-01T06:23:42;26.65;;;22.48;;
23222;SDS011;11780;13.904;100.620;2023-05-01T06:26:25;25.48;;;22.25;;
23222;SDS011;11780;13.904;100.620;2023-05-01T06:31:26;28.58;;;22.15;;
23222;SDS011;11780;13.904;100.620;2023-05-01T06:33:57;26.23;;;22.58;;
23222;SDS011;11780;13.904;100.620;2023-05-01T06:36:35;24.35;;;20.95;;
23222;SDS011;11780;13.904;100.620;2023-05-01T06:39:06;26.43;;;22.53;;
23222;SDS011;11780;13.904;100.620;2023-05-01T06:41:36;27.87;;;22.83;;
23222;SDS011;11780;13.904;100.620;2023-05-01T06:44:07;30.02;;;22.55;;
23222;SDS011;11780;13.904;100.620;2023-05-01T06:46:37;30.55;;;22.42;;
23222;SDS011;11780;13.904;100.620;2023-05-01T06:49:08;26.83;;;23.33;;
23222;SDS011;11780;13.904;100.620;2023-05-01T06:51:38;25.85;;;22.33;;
23222;SDS011;11780;13.904;100.620;2023-05-01T06:54:11;25.35;;;22.10;;
23222;SDS011;11780;13.904;100.620;2023-05-01T06:56:41;27.58;;;23.88;;
23222;SDS011;11780;13.904;100.620;2023-05-01T06:59:11;25.70;;;22.92;;
23222;SDS011;11780;13.904;100.620;2023-05-01T07:01:42;27.95;;;23.48;;
23222;SDS011;11780;13.904;100.620;2023-05-01T07:04:13;26.98;;;22.27;;
23222;SDS011;11780;13.904;100.620;2023-05-01T07:06:43;26.58;;;22.52;;
23222;SDS011;11780;13.904;100.620;2023-05-01T07:09:13;27.52;;;22.27;;
23222;SDS011;11780;13.904;100.620;2023-05-01T07:11:44;24.35;;;21.85;;
23222;SDS011;11780;13.904;100.620;2023-05-01T07:14:14;24.73;;;22.13;;
23222;SDS011;11780;13.904;100.620;2023-05-01T07:16:45;25.60;;;22.92;;
23222;SDS011;11780;13.904;100.620;2023-05-01T07:19:16;26.23;;;23.27;;
23222;SDS011;11780;13.904;100.620;2023-05-01T07:21:47;24.13;;;21.70;;
23222;SDS011;11780;13.904;100.620;2023-05-01T07:24:17;29.20;;;22.57;;
23222;SDS011;11780;13.904;100.620;2023-05-01T07:26:48;24.17;;;21.58;;
23222;SDS011;11780;13.904;100.620;2023-05-01T07:29:20;31.10;;;25.40;;
23222;SDS011;11780;13.904;100.620;2023-05-01T07:31:50;37.37;;;30.17;;
23222;SDS011;11780;13.904;100.620;2023-05-01T07:34:20;30.10;;;26.80;;
23222;SDS011;11780;13.904;100.620;2023-05-01T07:36:51;29.27;;;24.58;;
23222;SDS011;11780;13.904;100.620;2023-05-01T07:39:21;30.42;;;24.15;;
23222;SDS011;11780;13.904;100.620;2023-05-01T07:41:52;27.80;;;24.80;;
23222;SDS011;11780;13.904;100.620;2023-05-01T07:44:22;27.67;;;23.30;;
23222;SDS011;11780;13.904;100.620;2023-05-01T07:46:53;25.60;;;22.90;;
23222;SDS011;11780;13.904;100.620;2023-05-01T07:49:23;27.13;;;23.37;;
23222;SDS011;11780;13.904;100.620;2023-05-01T07:51:53;33.40;;;23.60;;
23222;SDS011;11780;13.904;100.620;2023-05-01T07:54:24;29.27;;;23.80;;
23222;SDS011;11780;13.904;100.620;2023-05-01T07:56:54;26.60;;;23.73;;
23222;SDS011;11780;13.904;100.620;2023-05-01T07:59:24;29.00;;;23.97;;
23222;SDS011;11780;13.904;100.620;2023-05-01T08:01:55;29.42;;;24.38;;
23222;SDS011;11780;13.904;100.620;2023-05-01T08:04:26;30.90;;;24.63;;
23222;SDS011;11780;13.904;100.620;2023-05-01T08:06:57;30.45;;;22.90;;
23222;SDS011;11780;13.904;100.620;2023-05-01T08:09:28;30.50;;;24.17;;
23222;SDS011;11780;13.904;100.620;2023-05-01T08:11:59;26.45;;;23.00;;
23222;SDS011;11780;13.904;100.620;2023-05-01T08:14:32;28.50;;;23.35;;
23222;SDS011;11780;13.904;100.620;2023-05-01T08:17:02;27.13;;;23.33;;
23222;SDS011;11780;13.904;100.620;2023-05-01T08:19:33;25.60;;;22.58;;
23222;SDS011;11780;13.904;100.620;2023-05-01T08:22:03;27.17;;;23.30;;
23222;SDS011;11780;13.904;100.620;2023-05-01T08:24:34;25.20;;;22.38;;
23222;SDS011;11780;13.904;100.620;2023-05-01T08:27:04;25.10;;;22.42;;
23222;SDS011;11780;13.904;100.620;2023-05-01T08:29:35;25.38;;;22.83;;
23222;SDS011;11780;13.904;100.620;2023-05-01T08:32:05;26.50;;;23.83;;
23222;SDS011;11780;13.904;100.620;2023-05-01T08:34:35;26.33;;;21.98;;
23222;SDS011;11780;13.904;100.620;2023-05-01T08:37:06;24.97;;;22.37;;
23222;SDS011;11780;13.904;100.620;2023-05-01T08:39:36;23.38;;;21.08;;
23222;SDS011;11780;13.904;100.620;2023-05-01T08:42:06;24.35;;;21.00;;
23222;SDS011;11780;13.904;100.620;2023-05-01T08:44:37;25.03;;;22.30;;
23222;SDS011;11780;13.904;100.620;2023-05-01T08:47:14;24.17;;;20.00;;
23222;SDS011;11780;13.904;100.620;2023-05-01T08:49:48;25.25;;;20.75;;
23222;SDS011;11780;13.904;100.620;2023-05-01T08:52:21;23.10;;;20.70;;
23222;SDS011;11780;13.904;100.620;2023-05-01T08:54:52;23.60;;;20.73;;
23222;SDS011;11780;13.904;100.620;2023-05-01T08:57:25;23.98;;;21.38;;
23222;SDS011;11780;13.904;100.620;2023-05-01T08:59:59;26.30;;;20.50;;
23222;SDS011;11780;13.904;100.620;2023-05-01T09:02:33;24.67;;;22.02;;
23222;SDS011;11780;13.904;100.620;2023-05-01T09:05:05;23.20;;;20.70;;
23222;SDS011;11780;13.904;100.620;2023-05-01T09:07:36;24.17;;;21.50;;
23222;SDS011;11780;13.904;100.620;2023-05-01T09:10:10;23.90;;;21.42;;
23222;SDS011;11780;13.904;100.620;2023-05-01T09:12:41;24.17;;;21.63;;
23222;SDS011;11780;13.904;100.620;2023-05-01T09:15:15;23.63;;;21.13;;
23222;SDS011;11780;13.904;100.620;2023-05-01T09:17:46;25.90;;;20.48;;
23222;SDS011;11780;13.904;100.620;2023-05-01T09:20:17;24.17;;;21.57;;
23222;SDS011;11780;13.904;100.620;2023-05-01T09:22:48;25.65;;;20.95;;
23222;SDS011;11780;13.904;100.620;2023-05-01T09:25:19;25.93;;;21.50;;
23222;SDS011;11780;13.904;100.620;2023-05-01T09:33:08;26.13;;;22.33;;
23222;SDS011;11780;13.904;100.620;2023-05-01T09:35:55;24.90;;;22.23;;
23222;SDS011;11780;13.904;100.620;2023-05-01T09:38:27;26.98;;;22.30;;
23222;SDS011;11780;13.904;100.620;2023-05-01T09:41:02;24.20;;;21.40;;
23222;SDS011;11780;13.904;100.620;2023-05-01T09:43:34;25.95;;;23.10;;
23222;SDS011;11780;13.904;100.620;2023-05-01T09:46:06;27.20;;;24.40;;
23222;SDS011;11780;13.904;100.620;2023-05-01T09:48:40;27.73;;;24.60;;
23222;SDS011;11780;13.904;100.620;2023-05-01T09:51:21;28.67;;;25.50;;
23222;SDS011;11780;13.904;100.620;2023-05-01T09:53:52;28.38;;;25.27;;
23222;SDS011;11780;13.904;100.620;2023-05-01T09:56:25;29.83;;;26.75;;
23222;SDS011;11780;13.904;100.620;2023-05-01T09:58:57;30.75;;;27.48;;
23222;SDS011;11780;13.904;100.620;2023-05-01T10:01:44;30.50;;;26.13;;
23222;SDS011;11780;13.904;100.620;2023-05-01T10:04:16;29.15;;;26.05;;
23222;SDS011;11780;13.904;100.620;2023-05-01T10:07:09;33.45;;;27.98;;
23222;SDS011;11780;13.904;100.620;2023-05-01T10:09:44;30.05;;;26.85;;
23222;SDS011;11780;13.904;100.620;2023-05-01T10:12:21;29.05;;;25.50;;
23222;SDS011;11780;13.904;100.620;2023-05-01T10:14:56;29.42;;;26.27;;
23222;SDS011;11780;13.904;100.620;2023-05-01T10:17:31;29.40;;;26.05;;
23222;SDS011;11780;13.904;100.620;2023-05-01T10:20:04;29.60;;;26.70;;
23222;SDS011;11780;13.904;100.620;2023-05-01T10:22:36;30.05;;;26.90;;
23222;SDS011;11780;13.904;100.620;2023-05-01T10:25:08;30.92;;;26.02;;
23222;SDS011;11780;13.904;100.620;2023-05-01T10:27:43;30.02;;;26.65;;
23222;SDS011;11780;13.904;100.620;2023-05-01T10:30:14;31.53;;;26.10;;
23222;SDS011;11780;13.904;100.620;2023-05-01T10:32:46;30.40;;;25.67;;
23222;SDS011;11780;13.904;100.620;2023-05-01T10:37:57;31.17;;;26.92;;
23222;SDS011;11780;13.904;100.620;2023-05-01T10:40:42;28.67;;;25.65;;
23222;SDS011;11780;13.904;100.620;2023-05-01T10:43:18;29.60;;;26.08;;
23222;SDS011;11780;13.904;100.620;2023-05-01T10:51:14;27.75;;;24.60;;
23222;SDS011;11780;13.904;100.620;2023-05-01T10:56:42;27.65;;;23.77;;
23222;SDS011;11780;13.904;100.620;2023-05-01T10:59:13;27.90;;;24.13;;
23222;SDS011;11780;13.904;100.620;2023-05-01T11:01:44;26.63;;;22.80;;
23222;SDS011;11780;13.904;100.620;2023-05-01T11:07:13;27.77;;;24.08;;
23222;SDS011;11780;13.904;100.620;2023-05-01T11:09:52;33.22;;;24.50;;
23222;SDS011;11780;13.904;100.620;2023-05-01T11:15:25;25.02;;;22.33;;
23222;SDS011;11780;13.904;100.620;2023-05-01T11:17:57;23.42;;;19.48;;
23222;SDS011;11780;13.904;100.620;2023-05-01T11:23:05;24.85;;;19.38;;
23222;SDS011;11780;13.904;100.620;2023-05-01T11:25:36;21.83;;;18.25;;
23222;SDS011;11780;13.904;100.620;2023-05-01T11:28:06;25.07;;;17.70;;
23222;SDS011;11780;13.904;100.620;2023-05-01T11:30:38;23.42;;;17.33;;
23222;SDS011;11780;13.904;100.620;2023-05-01T11:35:39;21.95;;;16.70;;
23222;SDS011;11780;13.904;100.620;2023-05-01T11:38:16;21.70;;;15.27;;
23222;SDS011;11780;13.904;100.620;2023-05-01T11:40:53;19.90;;;15.75;;
23222;SDS011;11780;13.904;100.620;2023-05-01T11:43:27;20.48;;;16.25;;
23222;SDS011;11780;13.904;100.620;2023-05-01T11:45:57;24.60;;;17.83;;
23222;SDS011;11780;13.904;100.620;2023-05-01T11:48:31;29.65;;;18.02;;
23222;SDS011;11780;13.904;100.620;2023-05-01T11:51:10;24.85;;;17.40;;
23222;SDS011;11780;13.904;100.620;2023-05-01T11:53:41;19.50;;;16.48;;
23222;SDS011;11780;13.904;100.620;2023-05-01T11:56:21;23.23;;;16.33;;
23222;SDS011;11780;13.904;100.620;2023-05-01T11:58:56;22.13;;;15.75;;
23222;SDS011;11780;13.904;100.620;2023-05-01T12:01:35;25.05;;;18.27;;
23222;SDS011;11780;13.904;100.620;2023-05-01T12:04:07;22.73;;;18.92;;
23222;SDS011;11780;13.904;100.620;2023-05-01T12:06:41;24.97;;;18.80;;
23222;SDS011;11780;13.904;100.620;2023-05-01T12:09:21;25.23;;;18.75;;
23222;SDS011;11780;13.904;100.620;2023-05-01T12:11:53;26.33;;;18.88;;
23222;SDS011;11780;13.904;100.620;2023-05-01T12:14:27;24.02;;;18.27;;
23222;SDS011;11780;13.904;100.620;2023-05-01T12:16:58;21.33;;;18.13;;
23222;SDS011;11780;13.904;100.620;2023-05-01T12:19:32;23.27;;;20.33;;
23222;SDS011;11780;13.904;100.620;2023-05-01T12:22:04;23.02;;;20.40;;
23222;SDS011;11780;13.904;100.620;2023-05-01T12:24:36;27.98;;;20.23;;
23222;SDS011;11780;13.904;100.620;2023-05-01T12:27:07;23.35;;;20.85;;
23222;SDS011;11780;13.904;100.620;2023-05-01T12:29:40;22.17;;;19.73;;
23222;SDS011;11780;13.904;100.620;2023-05-01T12:32:12;25.15;;;20.48;;
23222;SDS011;11780;13.904;100.620;2023-05-01T12:34:43;27.55;;;21.25;;
23222;SDS011;11780;13.904;100.620;2023-05-01T12:37:14;27.05;;;19.02;;
23222;SDS011;11780;13.904;100.620;2023-05-01T12:39:44;24.83;;;19.97;;
23222;SDS011;11780;13.904;100.620;2023-05-01T12:42:15;28.37;;;20.73;;
23222;SDS011;11780;13.904;100.620;2023-05-01T12:44:46;23.35;;;19.83;;
23222;SDS011;11780;13.904;100.620;2023-05-01T12:47:17;30.42;;;20.77;;
23222;SDS011;11780;13.904;100.620;2023-05-01T12:49:47;25.10;;;19.27;;
23222;SDS011;11780;13.904;100.620;2023-05-01T12:52:24;31.50;;;19.33;;
23222;SDS011;11780;13.904;100.620;2023-05-01T12:55:02;26.52;;;20.30;;
23222;SDS011;11780;13.904;100.620;2023-05-01T12:57:34;25.30;;;19.80;;
23222;SDS011;11780;13.904;100.620;2023-05-01T13:00:05;25.42;;;19.02;;
23222;SDS011;11780;13.904;100.620;2023-05-01T13:02:35;30.95;;;22.48;;
23222;SDS011;11780;13.904;100.620;2023-05-01T13:05:07;25.40;;;22.58;;
23222;SDS011;11780;13.904;100.620;2023-05-01T13:07:39;24.90;;;22.20;;
23222;SDS011;11780;13.904;100.620;2023-05-01T13:10:27;24.30;;;19.75;;
23222;SDS011;11780;13.904;100.620;2023-05-01T13:12:59;27.80;;;19.98;;
23222;SDS011;11780;13.904;100.620;2023-05-01T13:15:30;24.85;;;19.23;;
23222;SDS011;11780;13.904;100.620;2023-05-01T13:18:04;25.07;;;19.37;;
23222;SDS011;11780;13.904;100.620;2023-05-01T13:20:34;23.50;;;18.83;;
23222;SDS011;11780;13.904;100.620;2023-05-01T13:23:10;22.27;;;18.63;;
23222;SDS011;11780;13.904;100.620;2023-05-01T13:25:44;26.88;;;18.98;;
23222;SDS011;11780;13.904;100.620;2023-05-01T13:28:18;24.40;;;18.27;;
23222;SDS011;11780;13.904;100.620;2023-05-01T13:30:49;21.25;;;17.60;;
23222;SDS011;11780;13.904;100.620;2023-05-01T13:33:19;20.57;;;17.40;;
23222;SDS011;11780;13.904;100.620;2023-05-01T13:35:51;21.08;;;18.85;;
23222;SDS011;11780;13.904;100.620;2023-05-01T13:38:22;20.10;;;17.90;;
23222;SDS011;11780;13.904;100.620;2023-05-01T13:40:53;23.90;;;18.13;;
23222;SDS011;11780;13.904;100.620;2023-05-01T13:43:24;21.08;;;17.92;;
23222;SDS011;11780;13.904;100.620;2023-05-01T13:45:56;23.15;;;18.77;;
23222;SDS011;11780;13.904;100.620;2023-05-01T13:48:29;22.08;;;18.23;;
23222;SDS011;11780;13.904;100.620;2023-05-01T13:51:00;19.83;;;17.65;;
23222;SDS011;11780;13.904;100.620;2023-05-01T13:53:31;21.55;;;17.83;;
23222;SDS011;11780;13.904;100.620;2023-05-01T13:56:04;19.60;;;17.42;;
23222;SDS011;11780;13.904;100.620;2023-05-01T13:58:37;20.38;;;18.23;;
23222;SDS011;11780;13.904;100.620;2023-05-01T14:01:15;23.80;;;18.20;;
23222;SDS011;11780;13.904;100.620;2023-05-01T14:03:47;20.13;;;18.08;;
23222;SDS011;11780;13.904;100.620;2023-05-01T14:06:19;23.65;;;19.25;;
23222;SDS011;11780;13.904;100.620;2023-05-01T14:08:50;20.27;;;17.67;;
23222;SDS011;11780;13.904;100.620;2023-05-01T14:11:22;20.15;;;17.15;;
23222;SDS011;11780;13.904;100.620;2023-05-01T14:13:53;21.77;;;18.60;;
23222;SDS011;11780;13.904;100.620;2023-05-01T14:16:28;19.77;;;17.67;;
23222;SDS011;11780;13.904;100.620;2023-05-01T14:19:00;22.08;;;19.05;;
23222;SDS011;11780;13.904;100.620;2023-05-01T14:21:30;20.70;;;18.15;;
23222;SDS011;11780;13.904;100.620;2023-05-01T14:24:03;20.80;;;18.42;;
23222;SDS011;11780;13.904;100.620;2023-05-01T14:26:38;22.40;;;17.35;;
23222;SDS011;11780;13.904;100.620;2023-05-01T14:29:15;21.05;;;18.02;;
23222;SDS011;11780;13.904;100.620;2023-05-01T14:31:52;19.67;;;17.52;;
23222;SDS011;11780;13.904;100.620;2023-05-01T14:34:25;20.45;;;18.33;;
23222;SDS011;11780;13.904;100.620;2023-05-01T14:36:56;21.83;;;18.40;;
23222;SDS011;11780;13.904;100.620;2023-05-01T14:39:30;21.33;;;19.20;;
23222;SDS011;11780;13.904;100.620;2023-05-01T14:42:03;22.00;;;18.88;;
23222;SDS011;11780;13.904;100.620;2023-05-01T14:44:34;22.35;;;19.65;;
23222;SDS011;11780;13.904;100.620;2023-05-01T14:47:09;21.52;;;18.60;;
23222;SDS011;11780;13.904;100.620;2023-05-01T14:49:39;22.63;;;18.93;;
23222;SDS011;11780;13.904;100.620;2023-05-01T14:54:33;23.88;;;20.30;;
23222;SDS011;11780;13.904;100.620;2023-05-01T14:57:11;24.95;;;22.35;;
23222;SDS011;11780;13.904;100.620;2023-05-01T14:59:42;25.20;;;22.53;;
23222;SDS011;11780;13.904;100.620;2023-05-01T15:02:12;21.77;;;19.55;;
23222;SDS011;11780;13.904;100.620;2023-05-01T15:04:43;24.70;;;20.33;;
23222;SDS011;11780;13.904;100.620;2023-05-01T15:07:13;23.13;;;20.25;;
23222;SDS011;11780;13.904;100.620;2023-05-01T15:09:44;25.47;;;20.03;;
23222;SDS011;11780;13.904;100.620;2023-05-01T15:12:15;27.23;;;21.27;;
23222;SDS011;11780;13.904;100.620;2023-05-01T15:14:45;29.17;;;21.27;;
23222;SDS011;11780;13.904;100.620;2023-05-01T15:17:15;29.80;;;21.50;;
23222;SDS011;11780;13.904;100.620;2023-05-01T15:19:46;31.40;;;23.27;;
23222;SDS011;11780;13.904;100.620;2023-05-01T15:22:16;28.83;;;23.65;;
23222;SDS011;11780;13.904;100.620;2023-05-01T15:24:46;29.48;;;23.48;;
23222;SDS011;11780;13.904;100.620;2023-05-01T15:27:16;31.42;;;24.63;;
23222;SDS011;11780;13.904;100.620;2023-05-01T15:29:47;29.77;;;24.33;;
23222;SDS011;11780;13.904;100.620;2023-05-01T15:32:17;35.83;;;25.20;;
23222;SDS011;11780;13.904;100.620;2023-05-01T15:34:47;28.77;;;24.17;;
23222;SDS011;11780;13.904;100.620;2023-05-01T15:37:24;28.73;;;23.98;;
23222;SDS011;11780;13.904;100.620;2023-05-01T15:39:54;29.60;;;24.07;;
23222;SDS011;11780;13.904;100.620;2023-05-01T15:42:25;30.70;;;23.90;;
23222;SDS011;11780;13.904;100.620;2023-05-01T15:44:55;31.23;;;21.80;;
23222;SDS011;11780;13.904;100.620;2023-05-01T15:47:26;33.15;;;24.77;;
23222;SDS011;11780;13.904;100.620;2023-05-01T15:49:56;30.23;;;22.93;;
23222;SDS011;11780;13.904;100.620;2023-05-01T15:52:27;36.13;;;23.23;;
23222;SDS011;11780;13.904;100.620;2023-05-01T15:54:57;39.80;;;24.10;;
23222;SDS011;11780;13.904;100.620;2023-05-01T15:57:28;29.63;;;22.90;;
23222;SDS011;11780;13.904;100.620;2023-05-01T16:00:00;36.25;;;23.55;;
23222;SDS011;11780;13.904;100.620;2023-05-01T16:02:32;30.48;;;23.77;;
23222;SDS011;11780;13.904;100.620;2023-05-01T16:05:02;32.40;;;23.40;;
23222;SDS011;11780;13.904;100.620;2023-05-01T16:07:33;36.33;;;25.42;;
23222;SDS011;11780;13.904;100.620;2023-05-01T16:10:04;31.37;;;24.03;;
23222;SDS011;11780;13.904;100.620;2023-05-01T16:12:36;31.33;;;24.10;;
23222;SDS011;11780;13.904;100.620;2023-05-01T16:15:07;35.63;;;24.60;;
23222;SDS011;11780;13.904;100.620;2023-05-01T16:17:41;33.13;;;24.67;;
23222;SDS011;11780;13.904;100.620;2023-05-01T16:20:12;34.53;;;23.52;;
23222;SDS011;11780;13.904;100.620;2023-05-01T16:22:43;33.90;;;23.53;;
23222;SDS011;11780;13.904;100.620;2023-05-01T16:25:13;32.57;;;22.63;;
23222;SDS011;11780;13.904;100.620;2023-05-01T16:27:43;37.85;;;25.35;;
23222;SDS011;11780;13.904;100.620;2023-05-01T16:32:45;33.95;;;25.15;;
23222;SDS011;11780;13.904;100.620;2023-05-01T16:35:16;33.85;;;24.30;;
23222;SDS011;11780;13.904;100.620;2023-05-01T16:37:49;35.42;;;24.63;;
23222;SDS011;11780;13.904;100.620;2023-05-01T16:40:19;33.45;;;24.85;;
23222;SDS011;11780;13.904;100.620;2023-05-01T16:42:51;36.55;;;24.63;;